Triumph, Louisiana
Current Conditions -  °F | °C
As of 12:51 AM on Thursday 23 Oct 2014 (Local Time) from KBVE Reporting Station
Clear Clear  
Wind Chill: 72°   Ceiling: Unl
Heat Index: 72°   Visibility: 10mi
Dew Point: 57°   Wind: 9mph
Humidity: 59%   Direction: 40°NE
Pressure: 30.04"   Gusts: 17mph
Location:  29.2996°N, 89.4367°W
Report Text: KBVE 230551Z AUTO 04008G15KT 10SM CLR 22/14 A3004 RMK AO2 SLP173 T02220139 10228 20211 402500206 58006
Loading
Personal Weather Stations






























Interactive Weather Map
Tropical Storm Tracking
New forecast layout! Learn more

10-Day Weather Forecast

Advertisements
Track Severe Weather on mobile